Time;durP1;ratioP1;P1;durP2;ratioP2;P2;SDS_P1;SDS_P2;PMS_P1;PMS_P2;Temp;Humidity;BMP_temperature;BMP_pressure;BME280_temperature;BME280_humidity;BME280_pressure;Samples;Min_cycle;Max_cycle;Signal;HPM_P1;HPM_P2
2021/11/30 00:00:06;;;;;;;13.85;4.78;;;5.20;98.60;;;;;;5071282;28;20066;-66
2021/11/30 00:02:32;;;;;;;10.98;4.60;;;5.20;98.60;;;;;;5076982;28;20059;-66
2021/11/30 00:04:57;;;;;;;9.65;6.28;;;5.20;98.70;;;;;;5056918;28;20437;-66
2021/11/30 00:07:23;;;;;;;12.73;6.28;;;5.20;98.70;;;;;;5075568;28;20032;-66
2021/11/30 00:12:21;;;;;;;13.02;7.45;;;5.20;98.80;;;;;;5082348;28;20468;-66
2021/11/30 00:14:49;;;;;;;13.93;7.25;;;5.20;98.70;;;;;;5079276;28;20023;-66
2021/11/30 00:17:16;;;;;;;11.77;6.78;;;5.20;98.70;;;;;;5081827;28;20494;-66
2021/11/30 00:19:43;;;;;;;12.55;6.32;;;5.20;98.70;;;;;;5058665;28;20395;-66
2021/11/30 00:22:10;;;;;;;14.75;7.32;;;5.20;98.60;;;;;;5071272;28;20043;-66
2021/11/30 00:24:36;;;;;;;13.05;6.38;;;5.20;98.60;;;;;;5080810;28;20020;-66
2021/11/30 00:27:05;;;;;;;13.68;6.65;;;5.20;98.80;;;;;;5055990;28;20065;-66
2021/11/30 00:29:30;;;;;;;14.25;6.57;;;5.20;98.40;;;;;;5055707;28;20400;-66
2021/11/30 00:31:56;;;;;;;16.02;6.80;;;5.20;98.20;;;;;;5076595;28;20021;-66
2021/11/30 00:34:22;;;;;;;15.27;7.13;;;5.20;98.10;;;;;;5058496;28;20137;-66
2021/11/30 00:36:48;;;;;;;15.00;5.95;;;5.20;98.10;;;;;;5062476;28;20017;-66
2021/11/30 00:39:14;;;;;;;15.27;6.45;;;5.20;98.00;;;;;;5058173;28;20028;-67
2021/11/30 00:41:45;;;;;;;14.27;5.90;;;5.20;97.80;;;;;;5079333;28;20020;-66
2021/11/30 00:44:14;;;;;;;13.25;5.97;;;5.20;97.60;;;;;;5062801;28;20150;-66
2021/11/30 00:46:41;;;;;;;12.43;5.68;;;5.20;97.60;;;;;;5059556;28;20070;-66
2021/11/30 00:49:07;;;;;;;11.23;4.95;;;5.20;97.40;;;;;;5079662;28;20020;-66
2021/11/30 00:51:38;;;;;;;13.07;5.60;;;5.20;97.20;;;;;;5084967;28;20032;-66
2021/11/30 00:54:07;;;;;;;13.00;5.70;;;5.20;96.90;;;;;;5066392;28;20115;-66
2021/11/30 00:56:33;;;;;;;12.93;6.85;;;5.20;96.80;;;;;;5080203;28;20073;-66
2021/11/30 00:58:59;;;;;;;12.18;4.68;;;5.10;96.60;;;;;;5079487;28;20028;-67
2021/11/30 01:01:25;;;;;;;10.65;4.85;;;5.10;96.50;;;;;;5085304;28;20040;-66
2021/11/30 01:03:50;;;;;;;11.50;4.57;;;5.10;96.30;;;;;;5079978;28;20028;-69
2021/11/30 01:06:16;;;;;;;11.43;4.60;;;5.10;96.30;;;;;;5065563;28;20020;-66
2021/11/30 01:08:42;;;;;;;11.60;5.05;;;5.10;96.20;;;;;;5067281;28;20039;-66
2021/11/30 01:11:07;;;;;;;10.23;4.90;;;5.10;96.10;;;;;;5059193;28;20392;-66
2021/11/30 01:13:33;;;;;;;9.65;5.10;;;5.10;96.10;;;;;;5076597;28;20032;-66
2021/11/30 01:16:01;;;;;;;13.75;5.72;;;5.00;96.00;;;;;;5077018;28;20516;-66
2021/11/30 01:18:26;;;;;;;14.48;5.53;;;5.00;96.10;;;;;;5085001;28;20020;-66
2021/11/30 01:20:52;;;;;;;17.70;6.65;;;5.00;96.00;;;;;;5061451;28;20027;-66
2021/11/30 01:23:19;;;;;;;20.35;6.65;;;5.00;96.10;;;;;;5058738;28;20122;-66
2021/11/30 01:25:45;;;;;;;19.55;5.80;;;5.00;96.20;;;;;;5076792;28;20036;-66
2021/11/30 01:28:11;;;;;;;20.00;7.32;;;5.00;96.30;;;;;;5069715;28;20369;-66
2021/11/30 01:30:37;;;;;;;22.42;7.55;;;5.00;96.50;;;;;;5069773;28;20054;-66
2021/11/30 01:33:06;;;;;;;16.80;6.07;;;4.90;96.50;;;;;;5070630;28;20154;-66
2021/11/30 01:35:32;;;;;;;18.17;6.72;;;4.90;96.60;;;;;;5061766;28;20016;-66
2021/11/30 01:37:58;;;;;;;16.98;5.95;;;4.80;96.70;;;;;;5058567;28;20400;-66
2021/11/30 01:40:25;;;;;;;18.88;7.22;;;4.80;96.80;;;;;;5061192;28;20028;-67
2021/11/30 01:42:52;;;;;;;16.55;6.13;;;4.80;97.00;;;;;;5079124;28;20025;-67
2021/11/30 01:45:30;;;;;;;16.65;5.90;;;4.80;97.30;;;;;;5076425;28;20020;-67
2021/11/30 01:49:08;;;;;;;20.05;6.50;;;4.80;97.40;;;;;;5058979;28;20070;-67
2021/11/30 01:50:44;;;;;;;23.17;6.55;;;4.70;97.50;;;;;;5080705;28;20029;-67
2021/11/30 01:53:09;;;;;;;14.52;6.18;;;4.60;97.80;;;;;;5082287;28;20070;-66
2021/11/30 01:55:35;;;;;;;19.33;6.03;;;4.60;98.10;;;;;;5082019;28;20020;-67
2021/11/30 01:58:04;;;;;;;18.15;6.43;;;4.50;98.50;;;;;;5057653;28;20055;-67
2021/11/30 02:00:29;;;;;;;14.43;5.50;;;4.40;98.90;;;;;;5055092;28;20408;-67
2021/11/30 02:02:56;;;;;;;18.15;6.07;;;4.40;99.20;;;;;;5072931;28;20016;-67
2021/11/30 02:05:21;;;;;;;15.00;5.57;;;4.40;99.50;;;;;;5070052;28;20377;-67
2021/11/30 02:07:47;;;;;;;15.93;5.50;;;4.30;99.80;;;;;;5079449;28;20027;-67
2021/11/30 02:10:16;;;;;;;18.48;7.10;;;4.30;99.90;;;;;;5074697;28;20388;-67
2021/11/30 02:12:42;;;;;;;14.27;7.40;;;4.20;99.90;;;;;;5083833;28;20486;-67
2021/11/30 02:15:11;;;;;;;11.82;5.43;;;4.20;99.90;;;;;;5064589;28;20023;-67
2021/11/30 02:17:38;;;;;;;19.42;5.60;;;4.20;99.90;;;;;;5081488;28;20009;-67
2021/11/30 02:20:05;;;;;;;14.43;6.55;;;4.20;99.90;;;;;;5075898;28;20025;-67
2021/11/30 02:22:31;;;;;;;17.38;6.30;;;4.20;99.90;;;;;;5057568;28;20460;-67
2021/11/30 02:24:56;;;;;;;12.40;5.50;;;4.20;99.90;;;;;;5060106;28;20028;-66
2021/11/30 02:27:23;;;;;;;14.65;6.15;;;4.20;99.90;;;;;;5079797;28;20387;-66
2021/11/30 02:29:49;;;;;;;15.57;5.53;;;4.20;99.90;;;;;;5082255;28;20017;-67
2021/11/30 02:32:16;;;;;;;12.98;5.90;;;4.20;99.90;;;;;;5068613;28;20027;-66
2021/11/30 02:34:42;;;;;;;10.98;6.07;;;4.20;99.90;;;;;;5078123;28;20023;-66
2021/11/30 02:37:13;;;;;;;13.45;6.18;;;4.20;99.90;;;;;;5073180;28;20032;-66
2021/11/30 02:39:40;;;;;;;12.35;6.60;;;4.20;99.90;;;;;;5054967;28;20051;-66
2021/11/30 02:42:07;;;;;;;15.20;7.13;;;4.20;99.90;;;;;;5078023;28;20016;-66
2021/11/30 02:44:34;;;;;;;13.32;6.95;;;4.20;99.90;;;;;;5080502;28;20090;-67
2021/11/30 02:47:05;;;;;;;12.68;7.53;;;4.20;99.90;;;;;;5075229;28;20130;-67
2021/11/30 02:49:33;;;;;;;13.60;8.02;;;4.10;99.90;;;;;;5075126;28;20052;-66
2021/11/30 02:52:07;;;;;;;18.30;8.00;;;4.20;99.90;;;;;;5061065;28;20031;-67
2021/11/30 02:54:34;;;;;;;13.65;8.48;;;4.20;99.90;;;;;;5065644;28;20036;-67
2021/11/30 02:57:02;;;;;;;14.57;8.45;;;4.20;99.90;;;;;;5062482;28;20111;-67
2021/11/30 02:59:30;;;;;;;16.70;9.25;;;4.20;99.90;;;;;;5054029;28;20388;-67
2021/11/30 03:01:59;;;;;;;12.35;9.80;;;4.20;99.90;;;;;;5075168;28;20086;-67
2021/11/30 03:04:25;;;;;;;15.27;9.70;;;4.20;99.90;;;;;;5072885;28;20476;-67
2021/11/30 03:06:52;;;;;;;14.85;10.55;;;4.20;99.90;;;;;;5077706;28;20021;-67
2021/11/30 03:09:18;;;;;;;17.30;10.88;;;4.20;99.90;;;;;;5083123;28;20020;-66
2021/11/30 03:11:44;;;;;;;16.92;11.98;;;4.20;99.90;;;;;;5074640;28;20032;-66
2021/11/30 03:14:10;;;;;;;15.43;10.55;;;4.20;99.90;;;;;;5077530;28;20025;-67
2021/11/30 03:16:36;;;;;;;17.95;12.13;;;4.20;99.90;;;;;;5071737;28;20016;-67
2021/11/30 03:19:03;;;;;;;17.17;11.85;;;4.20;99.90;;;;;;5078651;28;20389;-67
2021/11/30 03:21:29;;;;;;;15.55;12.60;;;4.20;99.90;;;;;;5058884;28;20342;-67
2021/11/30 03:23:55;;;;;;;18.77;13.35;;;4.30;99.90;;;;;;5092727;28;20544;-66
2021/11/30 03:26:20;;;;;;;19.42;13.45;;;4.30;99.90;;;;;;5086586;28;20028;-66
2021/11/30 03:28:46;;;;;;;16.55;13.07;;;4.30;99.90;;;;;;5055339;28;20021;-67
2021/11/30 03:31:32;;;;;;;16.98;13.15;;;4.40;99.90;;;;;;5062019;28;20483;-67
2021/11/30 03:34:02;;;;;;;18.23;13.82;;;4.40;99.90;;;;;;5056456;28;20029;-67
2021/11/30 03:36:30;;;;;;;15.95;13.48;;;4.40;99.90;;;;;;5074490;28;20123;-66
2021/11/30 03:38:56;;;;;;;17.23;13.73;;;4.40;99.90;;;;;;5074630;28;20048;-67
2021/11/30 03:41:23;;;;;;;17.10;13.77;;;4.40;99.90;;;;;;5080560;28;20016;-66
2021/11/30 03:43:49;;;;;;;17.58;14.50;;;4.50;99.90;;;;;;5067186;28;20064;-66
2021/11/30 03:46:15;;;;;;;17.05;13.82;;;4.50;99.90;;;;;;5082583;28;20051;-67
2021/11/30 03:48:40;;;;;;;16.40;13.38;;;4.50;99.90;;;;;;5061368;28;20063;-67
2021/11/30 03:51:06;;;;;;;16.30;13.75;;;4.60;99.90;;;;;;5059124;28;20138;-67
2021/11/30 03:53:32;;;;;;;15.75;14.00;;;4.60;99.90;;;;;;5059069;28;20111;-67
2021/11/30 03:55:57;;;;;;;17.58;14.18;;;4.60;99.90;;;;;;5075857;28;20021;-66
2021/11/30 03:58:23;;;;;;;17.88;14.10;;;4.70;99.90;;;;;;5063428;28;20021;-67
2021/11/30 04:00:49;;;;;;;18.02;14.07;;;4.70;99.90;;;;;;5074954;28;20051;-67
2021/11/30 04:03:15;;;;;;;17.98;15.45;;;4.70;99.90;;;;;;5062198;28;20024;-67
2021/11/30 04:05:40;;;;;;;17.33;14.25;;;4.80;99.90;;;;;;5061333;28;20024;-66
2021/11/30 04:08:06;;;;;;;16.20;13.98;;;4.80;99.90;;;;;;5056240;28;20021;-66
2021/11/30 04:10:32;;;;;;;16.98;14.57;;;4.80;99.90;;;;;;5076764;28;20020;-67
2021/11/30 04:12:57;;;;;;;18.73;15.00;;;4.90;99.90;;;;;;5084053;28;20365;-67
2021/11/30 04:15:23;;;;;;;15.80;13.60;;;4.90;99.90;;;;;;5061766;28;20031;-67
2021/11/30 04:17:49;;;;;;;15.32;13.25;;;5.00;99.90;;;;;;5062894;28;20158;-67
2021/11/30 04:20:15;;;;;;;16.45;13.52;;;5.00;99.90;;;;;;5077919;28;20024;-67
2021/11/30 04:22:41;;;;;;;16.52;12.20;;;5.10;99.90;;;;;;5077985;28;20033;-67
2021/11/30 04:25:09;;;;;;;16.15;12.90;;;5.10;99.90;;;;;;5079824;28;20027;-67
2021/11/30 04:27:35;;;;;;;13.85;12.38;;;5.20;99.90;;;;;;5070723;28;20642;-67
2021/11/30 04:30:02;;;;;;;13.38;10.73;;;5.20;99.90;;;;;;5071946;28;20072;-67
2021/11/30 04:32:28;;;;;;;14.40;12.45;;;5.30;99.90;;;;;;5068821;28;20016;-67
2021/11/30 04:34:53;;;;;;;11.48;10.30;;;5.30;99.90;;;;;;5086719;28;20066;-67
2021/11/30 04:37:20;;;;;;;9.57;8.05;;;5.40;99.90;;;;;;5071526;28;20019;-66
2021/11/30 04:39:45;;;;;;;8.65;7.60;;;5.50;99.90;;;;;;5085122;28;20020;-67
2021/11/30 04:42:11;;;;;;;7.20;6.50;;;5.60;99.90;;;;;;5068526;28;20017;-67
2021/11/30 04:44:38;;;;;;;6.88;6.13;;;5.70;99.90;;;;;;5077978;28;20025;-67
2021/11/30 04:47:10;;;;;;;7.22;5.45;;;5.80;99.90;;;;;;5082305;28;20112;-67
2021/11/30 04:49:43;;;;;;;5.25;4.75;;;5.90;99.90;;;;;;5083353;28;20012;-67
2021/11/30 04:52:12;;;;;;;5.53;5.03;;;5.90;99.90;;;;;;5084310;28;20099;-67
2021/11/30 04:54:38;;;;;;;4.28;3.88;;;6.00;99.90;;;;;;5059015;28;20491;-67
2021/11/30 04:57:04;;;;;;;5.30;4.68;;;6.10;99.90;;;;;;5082935;28;20050;-67
2021/11/30 04:59:30;;;;;;;5.25;4.28;;;6.10;99.90;;;;;;5061828;28;20397;-67
2021/11/30 05:01:56;;;;;;;4.43;3.92;;;6.20;99.90;;;;;;5079708;28;20037;-67
2021/11/30 05:04:21;;;;;;;4.75;4.32;;;6.30;99.90;;;;;;5077232;28;20024;-67
2021/11/30 05:06:47;;;;;;;4.03;3.55;;;6.30;99.90;;;;;;5079090;28;20021;-67
2021/11/30 05:09:13;;;;;;;4.20;3.80;;;6.30;99.90;;;;;;5077775;28;20725;-66
2021/11/30 05:11:39;;;;;;;4.03;3.63;;;6.40;99.90;;;;;;5080739;28;20028;-67
2021/11/30 05:14:05;;;;;;;3.83;3.33;;;6.40;99.90;;;;;;5060713;28;20434;-67
2021/11/30 05:16:31;;;;;;;4.30;3.90;;;6.50;99.90;;;;;;5082483;28;20016;-67
2021/11/30 05:18:57;;;;;;;3.42;3.13;;;6.50;99.90;;;;;;5082552;28;20032;-67
2021/11/30 05:21:23;;;;;;;3.40;3.10;;;6.60;99.90;;;;;;5076820;28;20025;-67
2021/11/30 05:23:49;;;;;;;3.33;3.00;;;6.60;99.90;;;;;;5065652;28;20081;-67
2021/11/30 05:26:14;;;;;;;2.80;2.60;;;6.60;99.90;;;;;;5082659;28;20020;-67
2021/11/30 05:28:42;;;;;;;4.47;3.17;;;6.70;99.90;;;;;;5057882;28;20031;-67
2021/11/30 05:31:08;;;;;;;3.38;3.08;;;6.70;99.90;;;;;;5079317;28;20020;-67
2021/11/30 05:33:34;;;;;;;3.50;3.20;;;6.80;99.90;;;;;;5079075;28;20119;-66
2021/11/30 05:36:01;;;;;;;5.28;3.15;;;6.80;99.90;;;;;;5064960;28;20447;-67
2021/11/30 05:38:28;;;;;;;5.60;3.70;;;6.80;99.90;;;;;;5060091;28;20012;-67
2021/11/30 05:40:53;;;;;;;3.67;3.00;;;6.90;99.90;;;;;;5070217;28;20020;-66
2021/11/30 05:43:19;;;;;;;3.20;2.90;;;6.90;99.90;;;;;;5056743;28;20031;-66
2021/11/30 05:45:45;;;;;;;3.50;2.80;;;6.90;99.90;;;;;;5084060;28;20052;-67
2021/11/30 05:48:11;;;;;;;3.28;2.97;;;6.90;99.90;;;;;;5064060;28;20059;-67
2021/11/30 05:50:37;;;;;;;3.45;3.15;;;7.00;99.90;;;;;;5078936;28;20491;-66
2021/11/30 05:53:03;;;;;;;3.58;3.17;;;7.00;99.90;;;;;;5077434;28;20032;-67
2021/11/30 05:55:30;;;;;;;3.38;3.08;;;7.00;99.90;;;;;;5063259;28;20137;-67
2021/11/30 05:57:55;;;;;;;3.13;2.83;;;7.10;99.90;;;;;;5082074;28;20061;-67
2021/11/30 06:00:22;;;;;;;7.20;3.53;;;7.10;99.90;;;;;;5060730;28;20037;-66
2021/11/30 06:05:17;;;;;;;4.37;3.97;;;7.20;99.90;;;;;;5076221;28;20016;-66
2021/11/30 06:07:42;;;;;;;3.70;3.33;;;7.20;99.90;;;;;;5060282;28;20492;-66
2021/11/30 06:10:08;;;;;;;5.70;4.25;;;7.20;99.90;;;;;;5060800;28;20024;-66
2021/11/30 06:12:33;;;;;;;4.57;4.10;;;7.20;99.90;;;;;;5077024;28;20781;-66
2021/11/30 06:14:59;;;;;;;4.35;3.95;;;7.20;99.90;;;;;;5075884;28;20088;-66
2021/11/30 06:17:24;;;;;;;4.60;4.20;;;7.20;99.90;;;;;;5062202;28;20155;-66
2021/11/30 06:19:50;;;;;;;5.45;4.78;;;7.30;99.90;;;;;;5061853;28;20009;-67
2021/11/30 06:22:16;;;;;;;6.88;5.80;;;7.30;99.90;;;;;;5060361;28;20151;-66
2021/11/30 06:24:41;;;;;;;6.05;5.45;;;7.40;99.90;;;;;;5073969;28;20383;-66
2021/11/30 06:27:07;;;;;;;7.28;6.30;;;7.40;99.90;;;;;;5074518;28;20074;-66
2021/11/30 06:29:32;;;;;;;8.13;7.18;;;7.40;99.90;;;;;;5083734;28;20034;-66
2021/11/30 06:31:58;;;;;;;8.77;7.65;;;7.40;99.90;;;;;;5068640;28;20162;-66
2021/11/30 06:34:23;;;;;;;8.13;7.32;;;7.40;99.90;;;;;;5078251;28;20029;-67
2021/11/30 06:36:49;;;;;;;8.40;7.60;;;7.50;99.90;;;;;;5075998;28;20074;-66
2021/11/30 06:39:14;;;;;;;9.65;8.65;;;7.50;99.90;;;;;;5072855;28;20078;-66
2021/11/30 06:41:40;;;;;;;8.65;7.75;;;7.60;99.90;;;;;;5073424;28;20033;-66
2021/11/30 06:44:06;;;;;;;9.32;8.43;;;7.60;99.90;;;;;;5055762;28;20078;-66
2021/11/30 06:46:32;;;;;;;8.25;7.40;;;7.70;99.90;;;;;;5072817;28;20024;-66
2021/11/30 06:48:57;;;;;;;9.57;8.60;;;7.70;99.90;;;;;;5073225;28;20059;-66
2021/11/30 06:51:23;;;;;;;7.90;7.10;;;7.80;99.90;;;;;;5077160;28;20089;-66
2021/11/30 06:53:49;;;;;;;7.25;6.55;;;7.80;99.90;;;;;;5088856;28;20040;-66
2021/11/30 06:56:14;;;;;;;8.63;7.82;;;7.90;99.90;;;;;;5086127;28;20031;-67
2021/11/30 06:58:58;;;;;;;8.50;6.93;;;7.90;99.90;;;;;;5093449;28;20031;-66
2021/11/30 07:01:24;;;;;;;7.93;7.05;;;8.00;99.90;;;;;;5089240;28;20086;-67
2021/11/30 07:03:49;;;;;;;8.00;7.20;;;8.00;99.90;;;;;;5091723;28;20028;-67
2021/11/30 07:06:22;;;;;;;8.60;7.47;;;8.10;99.90;;;;;;5089832;28;20495;-67
2021/11/30 07:08:55;;;;;;;7.57;6.88;;;8.10;99.90;;;;;;5093522;28;20491;-66
2021/11/30 07:13:52;;;;;;;9.43;7.18;;;8.20;99.90;;;;;;5093472;28;20032;-66
2021/11/30 07:16:18;;;;;;;8.68;6.80;;;8.20;99.90;;;;;;5093006;28;20027;-67
2021/11/30 07:18:44;;;;;;;7.72;6.93;;;8.20;99.90;;;;;;5074986;28;20024;-66
2021/11/30 07:24:23;;;;;;;9.90;7.80;;;8.30;99.90;;;;;;5072030;28;20495;-66
2021/11/30 07:26:49;;;;;;;8.57;7.68;;;8.30;99.90;;;;;;5087083;28;20043;-67
2021/11/30 07:29:15;;;;;;;8.73;7.18;;;8.40;99.90;;;;;;5085921;28;20531;-67
2021/11/30 07:31:42;;;;;;;7.80;6.90;;;8.40;99.90;;;;;;5091135;28;20035;-67
2021/11/30 07:34:08;;;;;;;8.88;7.25;;;8.40;99.90;;;;;;5078047;28;20110;-66
2021/11/30 07:36:35;;;;;;;7.45;6.53;;;8.50;99.90;;;;;;5072812;28;20071;-67
2021/11/30 07:39:03;;;;;;;7.82;6.97;;;8.50;99.90;;;;;;5072861;28;20094;-66
2021/11/30 07:42:24;;;;;;;8.35;7.40;;;8.50;99.90;;;;;;5071350;28;20105;-66
2021/11/30 07:44:50;;;;;;;7.70;6.72;;;8.60;99.90;;;;;;5073204;28;20142;-66
2021/11/30 07:47:15;;;;;;;7.90;6.85;;;8.60;99.90;;;;;;5091012;28;20134;-67
2021/11/30 07:49:41;;;;;;;9.13;6.82;;;8.60;99.90;;;;;;5089584;28;20479;-66
2021/11/30 07:52:07;;;;;;;9.45;6.43;;;8.60;99.90;;;;;;5087125;28;20087;-66
2021/11/30 07:54:33;;;;;;;8.55;6.50;;;8.70;99.90;;;;;;5088161;28;20017;-67
2021/11/30 07:56:58;;;;;;;8.90;6.13;;;8.70;99.90;;;;;;5091125;28;20030;-66
2021/11/30 07:59:24;;;;;;;8.10;6.40;;;8.70;99.90;;;;;;5091207;28;20083;-67
2021/11/30 08:01:49;;;;;;;8.25;6.30;;;8.70;99.90;;;;;;5070228;28;20585;-67
2021/11/30 08:04:15;;;;;;;6.93;5.78;;;8.80;99.90;;;;;;5069808;28;20027;-66
2021/11/30 08:06:40;;;;;;;10.98;6.03;;;8.80;99.90;;;;;;5088481;28;20028;-66
2021/11/30 08:09:08;;;;;;;9.70;6.60;;;8.80;99.90;;;;;;5090455;28;20317;-66
2021/11/30 08:11:34;;;;;;;7.32;6.63;;;8.90;99.90;;;;;;5073034;28;20024;-67
2021/11/30 08:13:59;;;;;;;7.75;6.00;;;8.90;99.90;;;;;;5090990;28;20028;-67
2021/11/30 08:16:26;;;;;;;9.45;6.53;;;8.90;99.90;;;;;;5088167;28;20517;-66
2021/11/30 08:18:52;;;;;;;10.18;5.78;;;9.00;99.90;;;;;;5090286;28;20016;-66
2021/11/30 08:21:17;;;;;;;7.13;5.43;;;9.00;99.90;;;;;;5091627;28;20489;-67
2021/11/30 08:23:43;;;;;;;6.45;5.15;;;9.00;99.90;;;;;;5071267;28;20036;-66
2021/11/30 08:26:12;;;;;;;6.63;5.32;;;9.00;99.90;;;;;;5068658;28;20051;-66
2021/11/30 08:28:39;;;;;;;6.82;5.38;;;9.00;99.90;;;;;;5091079;28;20016;-66
2021/11/30 08:31:05;;;;;;;6.78;4.97;;;9.10;99.90;;;;;;5092437;28;20028;-66
2021/11/30 08:33:30;;;;;;;9.25;4.20;;;9.10;99.90;;;;;;5091507;28;20102;-67
2021/11/30 08:36:19;;;;;;;7.57;4.50;;;9.10;99.90;;;;;;5092424;28;20020;-66
2021/11/30 08:38:45;;;;;;;7.72;4.75;;;9.20;99.90;;;;;;5073992;28;20028;-66
2021/11/30 08:41:10;;;;;;;9.00;5.15;;;9.20;99.90;;;;;;5090073;28;20028;-67
2021/11/30 08:43:54;;;;;;;;;;;;;;;;;;;;;
2021/11/30 08:53:50;;;;;;;8.15;6.10;;;9.30;99.90;;;;;;5026243;28;20496;-66
2021/11/30 08:56:16;;;;;;;9.13;4.90;;;9.30;99.90;;;;;;5073850;28;20028;-66
2021/11/30 08:58:42;;;;;;;9.60;5.20;;;9.30;99.90;;;;;;5091760;28;20028;-66
2021/11/30 09:04:13;;;;;;;6.95;5.50;;;9.40;99.90;;;;;;5093161;28;20415;-66
2021/11/30 09:06:39;;;;;;;6.40;4.43;;;9.40;99.90;;;;;;5095368;28;20077;-66
2021/11/30 09:09:07;;;;;;;9.02;4.80;;;9.40;99.90;;;;;;5095386;28;20028;-66
2021/11/30 09:11:34;;;;;;;8.18;4.80;;;9.40;99.90;;;;;;5077493;28;20031;-66
2021/11/30 09:14:00;;;;;;;7.95;4.72;;;9.40;99.90;;;;;;5076621;28;20058;-66
2021/11/30 09:16:25;;;;;;;7.28;4.30;;;9.50;99.90;;;;;;5095635;28;20016;-67
2021/11/30 09:18:52;;;;;;;6.97;4.05;;;9.50;99.90;;;;;;5095245;28;20099;-66
2021/11/30 09:21:52;;;;;;;9.02;4.90;;;9.50;99.90;;;;;;5077162;28;20480;-66
2021/11/30 09:24:18;;;;;;;7.32;4.25;;;9.60;99.90;;;;;;5076702;28;20028;-67
2021/11/30 09:26:44;;;;;;;8.43;4.43;;;9.60;99.90;;;;;;5095271;28;20027;-66
2021/11/30 09:29:09;;;;;;;5.90;3.70;;;9.60;99.90;;;;;;5077232;28;20511;-66
2021/11/30 09:31:35;;;;;;;6.10;4.00;;;9.60;99.90;;;;;;5095202;28;20024;-66
2021/11/30 09:34:03;;;;;;;7.25;4.10;;;9.60;99.90;;;;;;5094657;28;20089;-66
2021/11/30 09:36:31;;;;;;;6.07;4.07;;;9.70;99.90;;;;;;5095158;28;20075;-66
2021/11/30 09:38:58;;;;;;;6.32;3.95;;;9.70;99.90;;;;;;5095040;28;20024;-67
2021/11/30 09:41:24;;;;;;;4.53;3.95;;;9.70;99.90;;;;;;5077120;28;20081;-66
2021/11/30 09:43:50;;;;;;;6.18;3.63;;;9.70;99.90;;;;;;5094603;28;20028;-66
2021/11/30 09:46:16;;;;;;;5.18;3.28;;;9.70;99.90;;;;;;5095040;28;20024;-66
2021/11/30 09:48:42;;;;;;;6.22;3.65;;;9.80;99.90;;;;;;5094795;28;20035;-66
2021/11/30 09:51:08;;;;;;;9.13;3.60;;;9.80;99.90;;;;;;5094928;28;20488;-66
2021/11/30 09:53:34;;;;;;;6.38;3.05;;;9.80;99.90;;;;;;5094656;28;20039;-66
2021/11/30 09:56:00;;;;;;;7.07;3.70;;;9.80;99.90;;;;;;5094628;28;20051;-67
2021/11/30 09:58:26;;;;;;;8.75;3.67;;;9.90;99.90;;;;;;5094884;28;20024;-66
2021/11/30 10:06:46;;;;;;;4.05;3.55;;;9.90;99.90;;;;;;5094563;28;20028;-67
2021/11/30 10:09:23;;;;;;;6.95;4.00;;;9.90;99.90;;;;;;5094465;28;20028;-67
2021/11/30 10:12:06;;;;;;;8.48;4.15;;;10.00;99.90;;;;;;5094679;28;20487;-67
2021/11/30 10:14:35;;;;;;;9.23;4.03;;;10.00;99.90;;;;;;5075499;28;20032;-67
2021/11/30 10:17:13;;;;;;;7.68;4.32;;;10.00;99.90;;;;;;5094429;28;20012;-66
2021/11/30 10:19:40;;;;;;;5.65;3.50;;;10.00;99.90;;;;;;5094273;28;20498;-67
2021/11/30 10:22:06;;;;;;;8.30;3.80;;;10.00;99.90;;;;;;5094316;28;20020;-66
2021/11/30 10:24:33;;;;;;;5.88;3.45;;;10.00;99.90;;;;;;5075582;28;20383;-66
2021/11/30 10:26:58;;;;;;;6.72;3.63;;;10.00;99.90;;;;;;5076066;28;20032;-67
2021/11/30 10:29:25;;;;;;;10.27;4.25;;;10.00;99.90;;;;;;5075935;28;20032;-66
2021/11/30 10:31:53;;;;;;;8.00;4.05;;;10.10;99.90;;;;;;5094101;28;20035;-66
2021/11/30 10:34:28;;;;;;;6.80;3.95;;;10.10;99.90;;;;;;5093625;28;20482;-66
2021/11/30 10:37:06;;;;;;;9.25;4.13;;;10.10;99.90;;;;;;5093927;28;20057;-67
2021/11/30 10:39:38;;;;;;;11.38;4.18;;;10.20;99.90;;;;;;5093906;28;20039;-66
2021/11/30 10:42:25;;;;;;;7.75;4.00;;;10.20;99.90;;;;;;5075923;28;20032;-66
2021/11/30 10:44:53;;;;;;;9.85;4.32;;;10.20;99.90;;;;;;5075106;28;20115;-66
2021/11/30 10:47:21;;;;;;;10.98;4.30;;;10.20;99.90;;;;;;5075876;28;20162;-66
2021/11/30 10:49:53;;;;;;;10.77;4.63;;;10.20;99.90;;;;;;5075523;28;20031;-66
2021/11/30 10:52:30;;;;;;;10.52;4.40;;;10.20;99.90;;;;;;5093765;28;20105;-66
2021/11/30 10:55:14;;;;;;;7.75;4.43;;;10.20;99.90;;;;;;5089183;28;20102;-66
2021/11/30 10:57:49;;;;;;;10.30;4.72;;;10.30;99.90;;;;;;5073694;28;20028;-66
2021/11/30 11:00:19;;;;;;;7.63;3.10;;;10.30;99.90;;;;;;5081385;28;20039;-67
2021/11/30 11:03:09;;;;;;;9.57;2.78;;;10.20;99.90;;;;;;5074911;28;20029;-67
2021/11/30 11:08:55;;;;;;;9.32;2.88;;;10.30;99.90;;;;;;5081617;28;20050;-66
2021/11/30 11:11:27;;;;;;;10.88;4.13;;;10.30;99.90;;;;;;5077687;28;20111;-67
2021/11/30 11:13:53;;;;;;;12.13;3.00;;;10.30;99.90;;;;;;5074531;28;20488;-66
2021/11/30 11:16:51;;;;;;;7.65;2.97;;;10.40;99.90;;;;;;5084967;28;20111;-66
2021/11/30 11:19:19;;;;;;;8.43;3.05;;;10.40;99.90;;;;;;5082459;28;20086;-66
2021/11/30 11:21:45;;;;;;;9.68;3.53;;;10.40;99.90;;;;;;5064812;28;20464;-66
2021/11/30 11:24:21;;;;;;;9.30;3.17;;;10.40;99.90;;;;;;5080748;28;20078;-67
2021/11/30 11:26:52;;;;;;;10.80;3.10;;;10.50;99.90;;;;;;5089568;28;20442;-66
2021/11/30 11:29:20;;;;;;;7.43;3.08;;;10.50;99.90;;;;;;5087358;28;20024;-67
2021/11/30 11:31:48;;;;;;;9.70;3.00;;;10.50;99.90;;;;;;5089431;28;20024;-67
2021/11/30 11:34:17;;;;;;;8.70;2.80;;;10.50;99.90;;;;;;5092264;28;20369;-66
2021/11/30 11:36:44;;;;;;;7.38;2.75;;;10.50;99.90;;;;;;5058594;28;20024;-67
2021/11/30 11:39:14;;;;;;;5.95;2.30;;;10.50;99.90;;;;;;5092485;28;20031;-67
2021/11/30 11:41:39;;;;;;;8.10;2.60;;;10.50;99.90;;;;;;5091709;28;20436;-67
2021/11/30 11:44:27;;;;;;;6.60;2.83;;;10.50;99.90;;;;;;5084829;28;20060;-67
2021/11/30 11:50:12;;;;;;;6.93;2.80;;;10.50;99.90;;;;;;5074679;28;20043;-66
2021/11/30 11:52:38;;;;;;;8.10;3.60;;;10.40;99.90;;;;;;5090640;28;20028;-67
2021/11/30 11:55:12;;;;;;;6.20;2.58;;;10.50;99.90;;;;;;5090848;28;20028;-67
2021/11/30 11:57:38;;;;;;;6.78;2.40;;;10.50;99.90;;;;;;5071504;28;20016;-67
2021/11/30 12:00:18;;;;;;;8.55;2.80;;;10.50;99.90;;;;;;5090905;28;20020;-67
2021/11/30 12:02:58;;;;;;;7.10;2.80;;;10.50;99.90;;;;;;5087404;28;20119;-66
2021/11/30 12:05:54;;;;;;;5.75;2.67;;;10.50;99.90;;;;;;5083433;28;20077;-67
2021/11/30 12:08:35;;;;;;;5.32;2.65;;;10.50;99.90;;;;;;5087533;28;20028;-66
2021/11/30 12:11:03;;;;;;;5.97;2.72;;;10.60;99.90;;;;;;5080965;28;20029;-66
2021/11/30 12:13:30;;;;;;;7.35;2.40;;;10.60;99.90;;;;;;5087190;28;20079;-66
2021/11/30 12:16:06;;;;;;;4.75;2.30;;;10.60;99.90;;;;;;5085906;28;20093;-67
2021/11/30 12:18:46;;;;;;;4.25;2.50;;;10.60;99.90;;;;;;5069916;28;20361;-67
2021/11/30 12:21:20;;;;;;;6.28;2.75;;;10.60;99.90;;;;;;5086440;28;20107;-67
2021/11/30 12:23:49;;;;;;;4.35;2.10;;;10.60;99.90;;;;;;5069507;28;20024;-66
2021/11/30 12:26:54;;;;;;;3.58;1.60;;;10.60;99.90;;;;;;5084996;28;20029;-67
2021/11/30 12:29:20;;;;;;;4.05;1.60;;;10.60;99.90;;;;;;5064327;28;20031;-66
2021/11/30 12:31:47;;;;;;;2.65;1.42;;;10.60;99.90;;;;;;5072207;28;20397;-67
2021/11/30 12:34:40;;;;;;;3.40;1.45;;;10.60;99.90;;;;;;5082831;28;20039;-66
2021/11/30 12:37:09;;;;;;;3.03;1.50;;;10.60;99.90;;;;;;5086686;28;20099;-67
2021/11/30 12:39:53;;;;;;;4.72;1.50;;;10.70;99.90;;;;;;5084652;28;20384;-67
2021/11/30 12:42:18;;;;;;;3.08;1.50;;;10.70;99.90;;;;;;5092635;28;20031;-67
2021/11/30 12:44:44;;;;;;;2.90;1.70;;;10.70;99.90;;;;;;5088458;28;20036;-67
2021/11/30 12:47:25;;;;;;;2.95;1.70;;;10.70;99.90;;;;;;5088408;28;20024;-67
2021/11/30 12:49:51;;;;;;;3.40;1.60;;;10.70;99.90;;;;;;5084600;28;20471;-67
2021/11/30 12:52:23;;;;;;;4.25;1.75;;;10.70;99.90;;;;;;5091297;28;20028;-67
2021/11/30 12:55:15;;;;;;;4.55;1.90;;;10.70;99.90;;;;;;5069871;28;20031;-66
2021/11/30 12:57:43;;;;;;;3.10;1.45;;;10.80;99.90;;;;;;5071391;28;20107;-67
2021/11/30 13:00:27;;;;;;;4.93;1.67;;;10.70;99.90;;;;;;5091191;28;20034;-66
2021/11/30 13:03:13;;;;;;;3.92;1.90;;;10.80;99.90;;;;;;5089221;28;20036;-67
2021/11/30 13:05:51;;;;;;;5.07;2.03;;;10.80;99.90;;;;;;5086496;28;20032;-66
2021/11/30 13:08:17;;;;;;;3.10;1.85;;;10.80;99.90;;;;;;5091238;28;20020;-67
2021/11/30 13:10:48;;;;;;;5.60;2.28;;;10.80;99.90;;;;;;5088608;28;20024;-66
2021/11/30 13:13:13;;;;;;;6.85;2.25;;;10.70;99.90;;;;;;5087138;28;20484;-66
2021/11/30 13:15:46;;;;;;;3.90;2.33;;;10.80;99.90;;;;;;5086901;28;20091;-67
2021/11/30 13:18:12;;;;;;;4.75;2.22;;;10.80;99.90;;;;;;5089246;28;20039;-66
2021/11/30 13:20:37;;;;;;;5.65;2.00;;;10.80;99.90;;;;;;5091989;28;20032;-66
2021/11/30 13:23:05;;;;;;;5.45;2.75;;;10.70;99.90;;;;;;5076077;28;20028;-66
2021/11/30 13:25:35;;;;;;;5.43;2.50;;;10.80;99.90;;;;;;5088389;28;20028;-66
2021/11/30 13:28:02;;;;;;;;;;;10.80;99.90;;;;;;5083247;28;20029;-66
2021/11/30 13:30:32;;;;;;;4.97;2.35;;;10.70;99.90;;;;;;5091090;28;19904;-66